sensor_id;sensor_type;location;lat;lon;timestamp;P1;durP1;ratioP1;P2;durP2;ratioP2
21299;SDS011;10809;49.476;11.016;2023-01-29T00:00:42;4.90;;;4.33;;
21299;SDS011;10809;49.476;11.016;2023-01-29T00:03:14;6.83;;;3.77;;
21299;SDS011;10809;49.476;11.016;2023-01-29T00:05:45;5.77;;;3.90;;
21299;SDS011;10809;49.476;11.016;2023-01-29T00:08:15;5.63;;;4.30;;
21299;SDS011;10809;49.476;11.016;2023-01-29T00:10:45;5.80;;;4.27;;
21299;SDS011;10809;49.476;11.016;2023-01-29T00:13:16;4.67;;;3.70;;
21299;SDS011;10809;49.476;11.016;2023-01-29T00:15:54;4.97;;;3.70;;
21299;SDS011;10809;49.476;11.016;2023-01-29T00:18:25;5.10;;;3.70;;
21299;SDS011;10809;49.476;11.016;2023-01-29T00:20:56;4.47;;;3.57;;
21299;SDS011;10809;49.476;11.016;2023-01-29T00:23:27;4.63;;;3.57;;
21299;SDS011;10809;49.476;11.016;2023-01-29T00:25:58;5.47;;;3.73;;
21299;SDS011;10809;49.476;11.016;2023-01-29T00:28:29;3.60;;;3.30;;
21299;SDS011;10809;49.476;11.016;2023-01-29T00:31:09;3.30;;;3.00;;
21299;SDS011;10809;49.476;11.016;2023-01-29T00:33:42;5.67;;;3.13;;
21299;SDS011;10809;49.476;11.016;2023-01-29T00:36:13;4.33;;;3.83;;
21299;SDS011;10809;49.476;11.016;2023-01-29T00:38:44;4.93;;;4.00;;
21299;SDS011;10809;49.476;11.016;2023-01-29T00:41:28;4.20;;;3.33;;
21299;SDS011;10809;49.476;11.016;2023-01-29T00:44:18;3.37;;;3.07;;
21299;SDS011;10809;49.476;11.016;2023-01-29T00:47:07;4.90;;;3.73;;
21299;SDS011;10809;49.476;11.016;2023-01-29T00:50:02;4.90;;;3.77;;
21299;SDS011;10809;49.476;11.016;2023-01-29T00:52:35;6.03;;;3.90;;
21299;SDS011;10809;49.476;11.016;2023-01-29T00:55:06;4.80;;;3.40;;
21299;SDS011;10809;49.476;11.016;2023-01-29T00:57:37;5.23;;;4.07;;
21299;SDS011;10809;49.476;11.016;2023-01-29T01:00:10;3.60;;;3.30;;
21299;SDS011;10809;49.476;11.016;2023-01-29T01:02:42;5.00;;;3.63;;
21299;SDS011;10809;49.476;11.016;2023-01-29T01:05:32;8.93;;;4.23;;
21299;SDS011;10809;49.476;11.016;2023-01-29T01:08:03;4.40;;;3.90;;
21299;SDS011;10809;49.476;11.016;2023-01-29T01:10:58;6.63;;;4.80;;
21299;SDS011;10809;49.476;11.016;2023-01-29T01:13:35;4.17;;;3.73;;
21299;SDS011;10809;49.476;11.016;2023-01-29T01:16:10;4.27;;;3.70;;
21299;SDS011;10809;49.476;11.016;2023-01-29T01:18:42;5.80;;;3.43;;
21299;SDS011;10809;49.476;11.016;2023-01-29T01:21:12;4.10;;;3.40;;
21299;SDS011;10809;49.476;11.016;2023-01-29T01:23:42;4.93;;;3.87;;
21299;SDS011;10809;49.476;11.016;2023-01-29T01:26:13;5.07;;;3.97;;
21299;SDS011;10809;49.476;11.016;2023-01-29T01:28:43;4.23;;;3.83;;
21299;SDS011;10809;49.476;11.016;2023-01-29T01:31:14;5.50;;;3.90;;
21299;SDS011;10809;49.476;11.016;2023-01-29T01:33:44;4.50;;;3.33;;
21299;SDS011;10809;49.476;11.016;2023-01-29T01:36:15;3.60;;;3.20;;
21299;SDS011;10809;49.476;11.016;2023-01-29T01:38:46;5.30;;;3.30;;
21299;SDS011;10809;49.476;11.016;2023-01-29T01:41:18;4.33;;;3.77;;
21299;SDS011;10809;49.476;11.016;2023-01-29T01:46:33;4.00;;;3.60;;
21299;SDS011;10809;49.476;11.016;2023-01-29T01:51:45;4.93;;;3.70;;
21299;SDS011;10809;49.476;11.016;2023-01-29T01:54:20;4.03;;;3.30;;
21299;SDS011;10809;49.476;11.016;2023-01-29T01:57:05;6.57;;;3.80;;
21299;SDS011;10809;49.476;11.016;2023-01-29T01:59:45;4.87;;;3.57;;
21299;SDS011;10809;49.476;11.016;2023-01-29T02:02:19;4.40;;;3.77;;
21299;SDS011;10809;49.476;11.016;2023-01-29T02:05:09;6.20;;;4.13;;
21299;SDS011;10809;49.476;11.016;2023-01-29T02:08:00;6.90;;;3.87;;
21299;SDS011;10809;49.476;11.016;2023-01-29T02:10:49;4.63;;;3.57;;
21299;SDS011;10809;49.476;11.016;2023-01-29T02:13:19;4.93;;;3.67;;
21299;SDS011;10809;49.476;11.016;2023-01-29T02:15:50;4.80;;;3.10;;
21299;SDS011;10809;49.476;11.016;2023-01-29T02:18:21;7.13;;;4.03;;
21299;SDS011;10809;49.476;11.016;2023-01-29T02:21:06;4.17;;;3.77;;
21299;SDS011;10809;49.476;11.016;2023-01-29T02:29:10;4.43;;;4.03;;
21299;SDS011;10809;49.476;11.016;2023-01-29T02:35:05;5.73;;;3.70;;
21299;SDS011;10809;49.476;11.016;2023-01-29T02:43:31;4.17;;;3.70;;
21299;SDS011;10809;49.476;11.016;2023-01-29T02:46:24;4.57;;;3.67;;
21299;SDS011;10809;49.476;11.016;2023-01-29T02:49:12;4.93;;;3.47;;
21299;SDS011;10809;49.476;11.016;2023-01-29T02:52:04;5.40;;;3.63;;
21299;SDS011;10809;49.476;11.016;2023-01-29T02:54:44;3.43;;;3.00;;
21299;SDS011;10809;49.476;11.016;2023-01-29T02:57:25;4.03;;;3.27;;
21299;SDS011;10809;49.476;11.016;2023-01-29T03:00:04;5.40;;;3.30;;
21299;SDS011;10809;49.476;11.016;2023-01-29T03:02:42;4.77;;;3.83;;
21299;SDS011;10809;49.476;11.016;2023-01-29T03:05:27;4.43;;;3.83;;
21299;SDS011;10809;49.476;11.016;2023-01-29T03:08:14;4.50;;;3.60;;
21299;SDS011;10809;49.476;11.016;2023-01-29T03:10:53;6.03;;;3.83;;
21299;SDS011;10809;49.476;11.016;2023-01-29T03:13:42;4.30;;;3.90;;
21299;SDS011;10809;49.476;11.016;2023-01-29T03:16:33;4.13;;;3.20;;
21299;SDS011;10809;49.476;11.016;2023-01-29T03:19:07;4.50;;;3.70;;
21299;SDS011;10809;49.476;11.016;2023-01-29T03:21:43;4.30;;;3.70;;
21299;SDS011;10809;49.476;11.016;2023-01-29T03:27:48;3.87;;;3.43;;
21299;SDS011;10809;49.476;11.016;2023-01-29T03:30:46;3.23;;;2.93;;
21299;SDS011;10809;49.476;11.016;2023-01-29T03:36:29;6.97;;;4.33;;
21299;SDS011;10809;49.476;11.016;2023-01-29T03:39:09;4.70;;;3.90;;
21299;SDS011;10809;49.476;11.016;2023-01-29T03:41:44;6.77;;;3.93;;
21299;SDS011;10809;49.476;11.016;2023-01-29T03:47:31;6.63;;;4.20;;
21299;SDS011;10809;49.476;11.016;2023-01-29T03:53:16;6.23;;;3.77;;
21299;SDS011;10809;49.476;11.016;2023-01-29T03:56:15;3.93;;;3.60;;
21299;SDS011;10809;49.476;11.016;2023-01-29T04:04:44;4.10;;;3.70;;
21299;SDS011;10809;49.476;11.016;2023-01-29T04:07:18;6.50;;;4.90;;
21299;SDS011;10809;49.476;11.016;2023-01-29T04:10:04;5.73;;;3.60;;
21299;SDS011;10809;49.476;11.016;2023-01-29T04:12:45;4.77;;;4.20;;
21299;SDS011;10809;49.476;11.016;2023-01-29T04:15:20;4.17;;;3.63;;
21299;SDS011;10809;49.476;11.016;2023-01-29T04:17:53;4.73;;;3.90;;
21299;SDS011;10809;49.476;11.016;2023-01-29T04:20:42;4.57;;;4.10;;
21299;SDS011;10809;49.476;11.016;2023-01-29T04:23:20;5.60;;;3.60;;
21299;SDS011;10809;49.476;11.016;2023-01-29T04:29:08;4.37;;;3.73;;
21299;SDS011;10809;49.476;11.016;2023-01-29T04:32:10;4.10;;;3.70;;
21299;SDS011;10809;49.476;11.016;2023-01-29T04:43:57;3.77;;;3.33;;
21299;SDS011;10809;49.476;11.016;2023-01-29T04:46:38;4.83;;;3.77;;
21299;SDS011;10809;49.476;11.016;2023-01-29T04:49:15;5.03;;;4.30;;
21299;SDS011;10809;49.476;11.016;2023-01-29T04:51:51;6.33;;;4.17;;
21299;SDS011;10809;49.476;11.016;2023-01-29T04:57:35;4.90;;;4.40;;
21299;SDS011;10809;49.476;11.016;2023-01-29T05:00:49;6.60;;;4.27;;
21299;SDS011;10809;49.476;11.016;2023-01-29T05:03:13;6.27;;;4.37;;
21299;SDS011;10809;49.476;11.016;2023-01-29T05:05:45;4.67;;;3.90;;
21299;SDS011;10809;49.476;11.016;2023-01-29T05:08:19;4.63;;;4.03;;
21299;SDS011;10809;49.476;11.016;2023-01-29T05:10:52;5.63;;;4.47;;
21299;SDS011;10809;49.476;11.016;2023-01-29T05:13:27;5.67;;;4.40;;
21299;SDS011;10809;49.476;11.016;2023-01-29T05:16:01;5.27;;;4.57;;
21299;SDS011;10809;49.476;11.016;2023-01-29T05:18:37;6.10;;;4.50;;
21299;SDS011;10809;49.476;11.016;2023-01-29T05:21:08;6.07;;;4.83;;
21299;SDS011;10809;49.476;11.016;2023-01-29T05:23:39;4.67;;;4.10;;
21299;SDS011;10809;49.476;11.016;2023-01-29T05:26:22;5.80;;;4.33;;
21299;SDS011;10809;49.476;11.016;2023-01-29T05:29:11;3.70;;;3.37;;
21299;SDS011;10809;49.476;11.016;2023-01-29T05:31:42;5.00;;;4.43;;
21299;SDS011;10809;49.476;11.016;2023-01-29T05:34:13;6.43;;;4.37;;
21299;SDS011;10809;49.476;11.016;2023-01-29T05:36:44;4.50;;;4.10;;
21299;SDS011;10809;49.476;11.016;2023-01-29T05:39:14;7.03;;;4.33;;
21299;SDS011;10809;49.476;11.016;2023-01-29T05:41:45;5.13;;;4.23;;
21299;SDS011;10809;49.476;11.016;2023-01-29T05:44:15;6.10;;;4.37;;
21299;SDS011;10809;49.476;11.016;2023-01-29T05:46:46;4.27;;;3.87;;
21299;SDS011;10809;49.476;11.016;2023-01-29T05:49:17;4.73;;;4.33;;
21299;SDS011;10809;49.476;11.016;2023-01-29T05:51:49;6.20;;;4.23;;
21299;SDS011;10809;49.476;11.016;2023-01-29T05:54:20;5.87;;;4.60;;
21299;SDS011;10809;49.476;11.016;2023-01-29T05:56:50;6.37;;;4.20;;
21299;SDS011;10809;49.476;11.016;2023-01-29T05:59:21;5.03;;;4.47;;
21299;SDS011;10809;49.476;11.016;2023-01-29T06:01:51;4.83;;;3.90;;
21299;SDS011;10809;49.476;11.016;2023-01-29T06:04:22;5.70;;;4.70;;
21299;SDS011;10809;49.476;11.016;2023-01-29T06:06:52;5.17;;;4.50;;
21299;SDS011;10809;49.476;11.016;2023-01-29T06:09:23;5.00;;;4.23;;
21299;SDS011;10809;49.476;11.016;2023-01-29T06:11:53;6.53;;;5.00;;
21299;SDS011;10809;49.476;11.016;2023-01-29T06:14:24;5.23;;;4.73;;
21299;SDS011;10809;49.476;11.016;2023-01-29T06:16:54;5.00;;;4.50;;
21299;SDS011;10809;49.476;11.016;2023-01-29T06:19:25;5.03;;;4.50;;
21299;SDS011;10809;49.476;11.016;2023-01-29T06:21:55;6.43;;;4.90;;
21299;SDS011;10809;49.476;11.016;2023-01-29T06:24:26;4.93;;;4.43;;
21299;SDS011;10809;49.476;11.016;2023-01-29T06:26:56;7.67;;;5.27;;
21299;SDS011;10809;49.476;11.016;2023-01-29T06:29:27;5.10;;;4.43;;
21299;SDS011;10809;49.476;11.016;2023-01-29T06:31:57;5.50;;;4.10;;
21299;SDS011;10809;49.476;11.016;2023-01-29T06:34:27;4.57;;;4.00;;
21299;SDS011;10809;49.476;11.016;2023-01-29T06:36:58;6.27;;;4.90;;
21299;SDS011;10809;49.476;11.016;2023-01-29T06:39:28;5.53;;;4.83;;
21299;SDS011;10809;49.476;11.016;2023-01-29T06:41:59;8.27;;;4.50;;
21299;SDS011;10809;49.476;11.016;2023-01-29T06:44:29;5.83;;;4.83;;
21299;SDS011;10809;49.476;11.016;2023-01-29T06:47:00;5.70;;;5.07;;
21299;SDS011;10809;49.476;11.016;2023-01-29T06:49:30;6.03;;;4.40;;
21299;SDS011;10809;49.476;11.016;2023-01-29T06:52:01;4.90;;;4.23;;
21299;SDS011;10809;49.476;11.016;2023-01-29T06:54:31;6.57;;;5.03;;
21299;SDS011;10809;49.476;11.016;2023-01-29T06:57:02;4.80;;;4.10;;
21299;SDS011;10809;49.476;11.016;2023-01-29T06:59:32;7.07;;;4.60;;
21299;SDS011;10809;49.476;11.016;2023-01-29T07:02:03;6.20;;;4.97;;
21299;SDS011;10809;49.476;11.016;2023-01-29T07:04:34;5.50;;;3.87;;
21299;SDS011;10809;49.476;11.016;2023-01-29T07:07:05;5.83;;;4.77;;
21299;SDS011;10809;49.476;11.016;2023-01-29T07:09:42;5.30;;;4.30;;
21299;SDS011;10809;49.476;11.016;2023-01-29T07:12:12;5.27;;;4.30;;
21299;SDS011;10809;49.476;11.016;2023-01-29T07:14:43;6.13;;;4.10;;
21299;SDS011;10809;49.476;11.016;2023-01-29T07:17:13;5.53;;;4.73;;
21299;SDS011;10809;49.476;11.016;2023-01-29T07:19:44;4.77;;;4.37;;
21299;SDS011;10809;49.476;11.016;2023-01-29T07:22:14;5.63;;;4.43;;
21299;SDS011;10809;49.476;11.016;2023-01-29T07:24:45;4.87;;;4.43;;
21299;SDS011;10809;49.476;11.016;2023-01-29T07:27:17;5.70;;;4.57;;
21299;SDS011;10809;49.476;11.016;2023-01-29T07:29:47;5.40;;;4.47;;
21299;SDS011;10809;49.476;11.016;2023-01-29T07:32:18;4.40;;;4.03;;
21299;SDS011;10809;49.476;11.016;2023-01-29T07:34:48;5.27;;;4.20;;
21299;SDS011;10809;49.476;11.016;2023-01-29T07:37:19;6.57;;;4.83;;
21299;SDS011;10809;49.476;11.016;2023-01-29T07:39:49;7.90;;;4.40;;
21299;SDS011;10809;49.476;11.016;2023-01-29T07:42:20;6.70;;;4.80;;
21299;SDS011;10809;49.476;11.016;2023-01-29T07:44:50;7.47;;;4.60;;
21299;SDS011;10809;49.476;11.016;2023-01-29T07:47:21;5.10;;;4.60;;
21299;SDS011;10809;49.476;11.016;2023-01-29T07:49:51;4.70;;;4.20;;
21299;SDS011;10809;49.476;11.016;2023-01-29T07:52:22;6.13;;;4.60;;
21299;SDS011;10809;49.476;11.016;2023-01-29T07:54:52;5.20;;;4.07;;
21299;SDS011;10809;49.476;11.016;2023-01-29T07:57:23;5.13;;;4.63;;
21299;SDS011;10809;49.476;11.016;2023-01-29T07:59:54;5.10;;;4.60;;
21299;SDS011;10809;49.476;11.016;2023-01-29T08:02:24;6.07;;;4.60;;
21299;SDS011;10809;49.476;11.016;2023-01-29T08:04:55;5.70;;;4.53;;
21299;SDS011;10809;49.476;11.016;2023-01-29T08:07:25;5.20;;;4.50;;
21299;SDS011;10809;49.476;11.016;2023-01-29T08:09:56;5.10;;;4.60;;
21299;SDS011;10809;49.476;11.016;2023-01-29T08:12:26;4.87;;;4.37;;
21299;SDS011;10809;49.476;11.016;2023-01-29T08:14:56;5.90;;;4.50;;
21299;SDS011;10809;49.476;11.016;2023-01-29T08:17:27;8.07;;;4.77;;
21299;SDS011;10809;49.476;11.016;2023-01-29T08:19:57;4.73;;;4.33;;
21299;SDS011;10809;49.476;11.016;2023-01-29T08:22:28;6.10;;;4.60;;
21299;SDS011;10809;49.476;11.016;2023-01-29T08:24:58;4.83;;;4.33;;
21299;SDS011;10809;49.476;11.016;2023-01-29T08:27:29;7.57;;;5.90;;
21299;SDS011;10809;49.476;11.016;2023-01-29T08:29:59;6.77;;;6.07;;
21299;SDS011;10809;49.476;11.016;2023-01-29T08:32:30;8.63;;;6.20;;
21299;SDS011;10809;49.476;11.016;2023-01-29T08:35:00;8.67;;;5.83;;
21299;SDS011;10809;49.476;11.016;2023-01-29T08:37:31;7.47;;;5.63;;
21299;SDS011;10809;49.476;11.016;2023-01-29T08:40:01;6.43;;;5.13;;
21299;SDS011;10809;49.476;11.016;2023-01-29T08:42:33;6.87;;;5.20;;
21299;SDS011;10809;49.476;11.016;2023-01-29T08:45:03;6.10;;;5.03;;
21299;SDS011;10809;49.476;11.016;2023-01-29T08:47:34;7.60;;;5.83;;
21299;SDS011;10809;49.476;11.016;2023-01-29T08:50:05;5.77;;;5.17;;
21299;SDS011;10809;49.476;11.016;2023-01-29T08:52:36;7.07;;;5.50;;
21299;SDS011;10809;49.476;11.016;2023-01-29T08:55:06;7.57;;;6.00;;
21299;SDS011;10809;49.476;11.016;2023-01-29T08:57:37;6.37;;;5.23;;
21299;SDS011;10809;49.476;11.016;2023-01-29T09:00:08;7.20;;;4.97;;
21299;SDS011;10809;49.476;11.016;2023-01-29T09:02:39;8.50;;;6.93;;
21299;SDS011;10809;49.476;11.016;2023-01-29T09:05:10;8.83;;;6.73;;
21299;SDS011;10809;49.476;11.016;2023-01-29T09:07:40;6.83;;;5.80;;
21299;SDS011;10809;49.476;11.016;2023-01-29T09:10:11;7.40;;;5.20;;
21299;SDS011;10809;49.476;11.016;2023-01-29T09:12:42;6.37;;;5.07;;
21299;SDS011;10809;49.476;11.016;2023-01-29T09:15:12;6.43;;;5.20;;
21299;SDS011;10809;49.476;11.016;2023-01-29T09:17:43;6.57;;;5.10;;
21299;SDS011;10809;49.476;11.016;2023-01-29T09:20:13;6.30;;;5.07;;
21299;SDS011;10809;49.476;11.016;2023-01-29T09:22:45;5.67;;;4.90;;
21299;SDS011;10809;49.476;11.016;2023-01-29T09:25:16;6.60;;;5.33;;
21299;SDS011;10809;49.476;11.016;2023-01-29T09:27:46;7.67;;;5.10;;
21299;SDS011;10809;49.476;11.016;2023-01-29T09:30:17;9.40;;;5.63;;
21299;SDS011;10809;49.476;11.016;2023-01-29T09:32:47;5.53;;;5.00;;
21299;SDS011;10809;49.476;11.016;2023-01-29T09:35:18;6.43;;;5.53;;
21299;SDS011;10809;49.476;11.016;2023-01-29T09:37:49;8.03;;;5.80;;
21299;SDS011;10809;49.476;11.016;2023-01-29T09:43:08;6.50;;;5.23;;
21299;SDS011;10809;49.476;11.016;2023-01-29T09:46:01;8.50;;;5.83;;
21299;SDS011;10809;49.476;11.016;2023-01-29T09:48:36;7.20;;;5.60;;
21299;SDS011;10809;49.476;11.016;2023-01-29T09:51:11;6.20;;;5.10;;
21299;SDS011;10809;49.476;11.016;2023-01-29T09:53:53;9.57;;;5.87;;
21299;SDS011;10809;49.476;11.016;2023-01-29T09:56:35;7.13;;;4.83;;
21299;SDS011;10809;49.476;11.016;2023-01-29T09:59:06;9.20;;;5.70;;
21299;SDS011;10809;49.476;11.016;2023-01-29T10:10:59;6.03;;;4.67;;
21299;SDS011;10809;49.476;11.016;2023-01-29T10:13:39;8.60;;;5.53;;
21299;SDS011;10809;49.476;11.016;2023-01-29T10:27:26;6.77;;;5.03;;
21299;SDS011;10809;49.476;11.016;2023-01-29T10:30:02;7.83;;;5.77;;
21299;SDS011;10809;49.476;11.016;2023-01-29T10:32:38;9.07;;;5.27;;
21299;SDS011;10809;49.476;11.016;2023-01-29T10:37:42;6.17;;;4.70;;
21299;SDS011;10809;49.476;11.016;2023-01-29T10:40:20;8.97;;;5.27;;
21299;SDS011;10809;49.476;11.016;2023-01-29T10:59:55;6.17;;;5.00;;
21299;SDS011;10809;49.476;11.016;2023-01-29T11:02:36;7.50;;;5.70;;
21299;SDS011;10809;49.476;11.016;2023-01-29T11:08:14;7.73;;;5.57;;
21299;SDS011;10809;49.476;11.016;2023-01-29T11:11:02;6.60;;;5.20;;
21299;SDS011;10809;49.476;11.016;2023-01-29T11:13:43;7.97;;;5.73;;
21299;SDS011;10809;49.476;11.016;2023-01-29T11:16:20;6.80;;;5.40;;
21299;SDS011;10809;49.476;11.016;2023-01-29T11:18:55;7.50;;;5.43;;
21299;SDS011;10809;49.476;11.016;2023-01-29T11:21:28;7.33;;;5.10;;
21299;SDS011;10809;49.476;11.016;2023-01-29T11:24:06;6.67;;;5.73;;
21299;SDS011;10809;49.476;11.016;2023-01-29T11:26:40;7.80;;;5.63;;
21299;SDS011;10809;49.476;11.016;2023-01-29T11:29:32;7.00;;;5.73;;
21299;SDS011;10809;49.476;11.016;2023-01-29T11:35:00;6.03;;;5.43;;
21299;SDS011;10809;49.476;11.016;2023-01-29T11:37:32;8.47;;;6.10;;
21299;SDS011;10809;49.476;11.016;2023-01-29T11:42:49;7.10;;;5.80;;
21299;SDS011;10809;49.476;11.016;2023-01-29T11:47:55;6.87;;;5.60;;
21299;SDS011;10809;49.476;11.016;2023-01-29T11:50:27;7.77;;;5.77;;
21299;SDS011;10809;49.476;11.016;2023-01-29T11:53:00;8.80;;;6.03;;
21299;SDS011;10809;49.476;11.016;2023-01-29T11:55:32;9.77;;;6.67;;
21299;SDS011;10809;49.476;11.016;2023-01-29T11:58:15;7.10;;;5.63;;
21299;SDS011;10809;49.476;11.016;2023-01-29T12:00:49;9.27;;;6.50;;
21299;SDS011;10809;49.476;11.016;2023-01-29T12:06:31;7.63;;;5.73;;
21299;SDS011;10809;49.476;11.016;2023-01-29T12:09:08;10.33;;;6.00;;
21299;SDS011;10809;49.476;11.016;2023-01-29T12:11:40;7.37;;;5.70;;
21299;SDS011;10809;49.476;11.016;2023-01-29T12:14:26;6.47;;;5.30;;
21299;SDS011;10809;49.476;11.016;2023-01-29T12:19:49;7.97;;;6.00;;
21299;SDS011;10809;49.476;11.016;2023-01-29T12:22:30;8.80;;;6.00;;
21299;SDS011;10809;49.476;11.016;2023-01-29T12:25:53;7.67;;;6.03;;
21299;SDS011;10809;49.476;11.016;2023-01-29T12:28:21;7.63;;;5.83;;
21299;SDS011;10809;49.476;11.016;2023-01-29T12:31:11;7.10;;;5.80;;
21299;SDS011;10809;49.476;11.016;2023-01-29T12:37:15;6.40;;;5.27;;
21299;SDS011;10809;49.476;11.016;2023-01-29T12:39:51;8.60;;;5.87;;
21299;SDS011;10809;49.476;11.016;2023-01-29T12:42:22;6.60;;;5.23;;
21299;SDS011;10809;49.476;11.016;2023-01-29T12:44:57;7.90;;;5.53;;
21299;SDS011;10809;49.476;11.016;2023-01-29T12:52:52;6.80;;;5.23;;
21299;SDS011;10809;49.476;11.016;2023-01-29T12:55:25;8.17;;;5.93;;
21299;SDS011;10809;49.476;11.016;2023-01-29T12:58:10;7.70;;;5.67;;
21299;SDS011;10809;49.476;11.016;2023-01-29T13:00:44;7.63;;;5.47;;
21299;SDS011;10809;49.476;11.016;2023-01-29T13:03:35;6.73;;;5.20;;
21299;SDS011;10809;49.476;11.016;2023-01-29T13:06:33;8.00;;;4.50;;
21299;SDS011;10809;49.476;11.016;2023-01-29T13:09:16;5.07;;;4.43;;
21299;SDS011;10809;49.476;11.016;2023-01-29T13:11:55;7.13;;;5.00;;
21299;SDS011;10809;49.476;11.016;2023-01-29T13:20:16;6.70;;;5.57;;
21299;SDS011;10809;49.476;11.016;2023-01-29T13:22:52;5.70;;;4.57;;
21299;SDS011;10809;49.476;11.016;2023-01-29T13:25:27;6.63;;;5.00;;
21299;SDS011;10809;49.476;11.016;2023-01-29T13:27:57;5.87;;;4.60;;
21299;SDS011;10809;49.476;11.016;2023-01-29T13:30:31;5.97;;;4.73;;
21299;SDS011;10809;49.476;11.016;2023-01-29T13:33:05;5.90;;;5.03;;
21299;SDS011;10809;49.476;11.016;2023-01-29T13:35:39;7.67;;;5.27;;
21299;SDS011;10809;49.476;11.016;2023-01-29T13:38:29;7.00;;;5.57;;
21299;SDS011;10809;49.476;11.016;2023-01-29T13:41:05;5.20;;;4.63;;
21299;SDS011;10809;49.476;11.016;2023-01-29T13:43:38;5.20;;;4.70;;
21299;SDS011;10809;49.476;11.016;2023-01-29T13:46:11;6.87;;;4.60;;
21299;SDS011;10809;49.476;11.016;2023-01-29T13:48:44;4.00;;;3.60;;
21299;SDS011;10809;49.476;11.016;2023-01-29T13:51:19;4.77;;;4.30;;
21299;SDS011;10809;49.476;11.016;2023-01-29T13:53:53;5.37;;;4.57;;
21299;SDS011;10809;49.476;11.016;2023-01-29T13:59:04;6.47;;;4.77;;
21299;SDS011;10809;49.476;11.016;2023-01-29T14:06:52;5.30;;;4.20;;
21299;SDS011;10809;49.476;11.016;2023-01-29T14:17:25;4.90;;;4.03;;
21299;SDS011;10809;49.476;11.016;2023-01-29T14:20:01;5.53;;;3.67;;
21299;SDS011;10809;49.476;11.016;2023-01-29T14:22:52;5.13;;;4.23;;
21299;SDS011;10809;49.476;11.016;2023-01-29T14:25:32;5.63;;;4.30;;
21299;SDS011;10809;49.476;11.016;2023-01-29T14:28:12;4.67;;;4.20;;
21299;SDS011;10809;49.476;11.016;2023-01-29T14:30:49;4.57;;;3.57;;
21299;SDS011;10809;49.476;11.016;2023-01-29T14:33:25;8.87;;;5.03;;
21299;SDS011;10809;49.476;11.016;2023-01-29T14:36:05;5.20;;;3.93;;
21299;SDS011;10809;49.476;11.016;2023-01-29T14:38:48;7.40;;;4.53;;
21299;SDS011;10809;49.476;11.016;2023-01-29T14:41:23;4.70;;;4.00;;
21299;SDS011;10809;49.476;11.016;2023-01-29T14:47:09;5.63;;;4.00;;
21299;SDS011;10809;49.476;11.016;2023-01-29T14:49:49;4.63;;;4.03;;
21299;SDS011;10809;49.476;11.016;2023-01-29T14:52:27;5.37;;;3.80;;
21299;SDS011;10809;49.476;11.016;2023-01-29T14:55:06;6.73;;;3.87;;
21299;SDS011;10809;49.476;11.016;2023-01-29T14:57:44;5.63;;;4.37;;
21299;SDS011;10809;49.476;11.016;2023-01-29T15:00:16;5.07;;;4.27;;
21299;SDS011;10809;49.476;11.016;2023-01-29T15:02:53;5.57;;;4.33;;
21299;SDS011;10809;49.476;11.016;2023-01-29T15:05:27;5.00;;;4.33;;
21299;SDS011;10809;49.476;11.016;2023-01-29T15:10:46;4.57;;;4.03;;
21299;SDS011;10809;49.476;11.016;2023-01-29T15:13:46;4.37;;;3.80;;
21299;SDS011;10809;49.476;11.016;2023-01-29T15:16:23;6.67;;;4.80;;
21299;SDS011;10809;49.476;11.016;2023-01-29T15:19:05;6.27;;;4.60;;
21299;SDS011;10809;49.476;11.016;2023-01-29T15:24:36;5.70;;;4.03;;
21299;SDS011;10809;49.476;11.016;2023-01-29T15:27:10;5.80;;;4.13;;
21299;SDS011;10809;49.476;11.016;2023-01-29T15:29:47;5.50;;;4.37;;
21299;SDS011;10809;49.476;11.016;2023-01-29T15:32:32;8.07;;;4.93;;
21299;SDS011;10809;49.476;11.016;2023-01-29T15:40:55;7.97;;;4.80;;
21299;SDS011;10809;49.476;11.016;2023-01-29T15:43:28;8.10;;;4.80;;
21299;SDS011;10809;49.476;11.016;2023-01-29T15:46:00;5.47;;;4.37;;
21299;SDS011;10809;49.476;11.016;2023-01-29T15:48:34;7.70;;;4.50;;
21299;SDS011;10809;49.476;11.016;2023-01-29T15:51:07;5.47;;;4.40;;
21299;SDS011;10809;49.476;11.016;2023-01-29T15:53:49;7.63;;;4.77;;
21299;SDS011;10809;49.476;11.016;2023-01-29T15:56:26;6.83;;;4.60;;
21299;SDS011;10809;49.476;11.016;2023-01-29T15:59:00;6.00;;;4.73;;
21299;SDS011;10809;49.476;11.016;2023-01-29T16:01:33;9.27;;;4.43;;
21299;SDS011;10809;49.476;11.016;2023-01-29T16:04:03;5.53;;;4.50;;
21299;SDS011;10809;49.476;11.016;2023-01-29T16:06:36;5.60;;;4.73;;
21299;SDS011;10809;49.476;11.016;2023-01-29T16:09:09;6.63;;;4.57;;
21299;SDS011;10809;49.476;11.016;2023-01-29T16:11:46;8.07;;;4.93;;
21299;SDS011;10809;49.476;11.016;2023-01-29T16:14:19;6.07;;;5.07;;
21299;SDS011;10809;49.476;11.016;2023-01-29T16:16:52;7.17;;;5.07;;
21299;SDS011;10809;49.476;11.016;2023-01-29T16:19:27;8.27;;;5.67;;
21299;SDS011;10809;49.476;11.016;2023-01-29T16:22:02;6.30;;;5.13;;
21299;SDS011;10809;49.476;11.016;2023-01-29T16:24:34;7.50;;;5.10;;
21299;SDS011;10809;49.476;11.016;2023-01-29T16:27:08;6.07;;;4.90;;
21299;SDS011;10809;49.476;11.016;2023-01-29T16:29:42;6.57;;;4.87;;
21299;SDS011;10809;49.476;11.016;2023-01-29T16:32:12;7.90;;;6.23;;
21299;SDS011;10809;49.476;11.016;2023-01-29T16:34:45;8.33;;;5.50;;
21299;SDS011;10809;49.476;11.016;2023-01-29T16:37:20;6.47;;;4.97;;
21299;SDS011;10809;49.476;11.016;2023-01-29T16:39:54;12.13;;;4.87;;
21299;SDS011;10809;49.476;11.016;2023-01-29T16:42:26;6.70;;;4.73;;
21299;SDS011;10809;49.476;11.016;2023-01-29T16:45:01;8.13;;;5.30;;
21299;SDS011;10809;49.476;11.016;2023-01-29T16:48:00;8.27;;;5.43;;
21299;SDS011;10809;49.476;11.016;2023-01-29T16:50:51;8.60;;;5.40;;
21299;SDS011;10809;49.476;11.016;2023-01-29T16:53:33;7.70;;;4.77;;
21299;SDS011;10809;49.476;11.016;2023-01-29T16:56:05;7.93;;;6.03;;
21299;SDS011;10809;49.476;11.016;2023-01-29T16:58:37;10.60;;;5.60;;
21299;SDS011;10809;49.476;11.016;2023-01-29T17:01:08;8.63;;;5.73;;
21299;SDS011;10809;49.476;11.016;2023-01-29T17:03:40;11.10;;;7.03;;
21299;SDS011;10809;49.476;11.016;2023-01-29T17:06:11;9.87;;;6.57;;
21299;SDS011;10809;49.476;11.016;2023-01-29T17:08:48;14.27;;;7.73;;
21299;SDS011;10809;49.476;11.016;2023-01-29T17:11:23;15.70;;;8.73;;
21299;SDS011;10809;49.476;11.016;2023-01-29T17:13:59;13.23;;;8.57;;
21299;SDS011;10809;49.476;11.016;2023-01-29T17:16:31;13.67;;;7.40;;
21299;SDS011;10809;49.476;11.016;2023-01-29T17:19:10;11.57;;;7.60;;
21299;SDS011;10809;49.476;11.016;2023-01-29T17:21:46;10.57;;;6.50;;
21299;SDS011;10809;49.476;11.016;2023-01-29T17:24:17;9.20;;;6.27;;
21299;SDS011;10809;49.476;11.016;2023-01-29T17:26:48;11.70;;;6.83;;
21299;SDS011;10809;49.476;11.016;2023-01-29T17:29:21;9.50;;;6.97;;
21299;SDS011;10809;49.476;11.016;2023-01-29T17:31:55;11.27;;;7.40;;
21299;SDS011;10809;49.476;11.016;2023-01-29T17:34:28;11.63;;;8.03;;
21299;SDS011;10809;49.476;11.016;2023-01-29T17:36:59;12.00;;;7.00;;
21299;SDS011;10809;49.476;11.016;2023-01-29T17:39:29;10.00;;;6.80;;
21299;SDS011;10809;49.476;11.016;2023-01-29T17:42:00;9.80;;;7.40;;
21299;SDS011;10809;49.476;11.016;2023-01-29T17:44:31;15.83;;;7.77;;
21299;SDS011;10809;49.476;11.016;2023-01-29T17:47:02;11.80;;;8.23;;
21299;SDS011;10809;49.476;11.016;2023-01-29T17:49:34;10.67;;;7.77;;
21299;SDS011;10809;49.476;11.016;2023-01-29T17:52:06;12.20;;;6.87;;
21299;SDS011;10809;49.476;11.016;2023-01-29T17:54:36;13.17;;;7.40;;
21299;SDS011;10809;49.476;11.016;2023-01-29T17:57:08;11.13;;;7.30;;
21299;SDS011;10809;49.476;11.016;2023-01-29T17:59:42;14.23;;;8.17;;